Accueil
METAR-TAF:

METAR-TAF

Aéroports :

Benson, Angleterre

latitude: 51-37N, longitude: 001-05W, altitude: 63 m

Observation

Le bulletin a été fait il y a 32 minutes, à 23:50 UTC
Vent 6 kt de sud/sud-ouest
Température 13°C
Humidité 94%
Pression 1017 hPa
Visibilité 10 km ou plus
pas de nuages en-dessous de 1500 mètres et pas de cumulonimbus.

METAR: EGUB 172350Z 20006KT CAVOK 13/12 Q1017 NOSIG RMK BLU BLU

Heure: 01:22 (00:22 UTC)

Prévision

Le bulletin a été fait il y a 4 heures et 51 minutes, à 19:31 UTC
Prévision valable du 17 à 21 UTC au 18 à 02 UTC
Vent 10 kt de sud/sud-ouest
Visibilité 10 km ou plus
Quelques nuages à une hauteur de 4000 ft
Probabilité 30% :
Temporairement
du 17 à 22 UTC au 18 à 02 UTC
Nuages épars à une hauteur de 1200 ft

TAF: EGUB 171931Z 1721/1802 20010KT 9999 FEW040 PROB30 TEMPO 1722/1802 SCT012

Observations et prévisions météorologiques de plus de 4000 aéroports (messages METAR et TAF).

Les stations disponibles sont représentées par des disques jaunes et rouges sur la carte.

Passer la souris dessus pour voir le nom de la station.

Cliquer dessus pour voir les observations et prévisions météorologiques.

Pour changer de carte: cliquez sur les boutons verts avec une croix noire pour zoomer, sur le bouton vert avec un tiret pour effectuer un zoom arrière, ou sur les flèches vertes pour les cartes adjacentes.


METAR-TAF: